aviador You're here:

KGEG Decoded Metar

SPOKANE in WA, USA
Report Time2017-10-20 14:53:00
UTC Time2017-10-20 15:59:42
Flight Rules Old
Wind220° at 15 kt
W.Decomp.*RWY 21: 14.9 kt HW 2.1 kt LCW
RWY 25: 10.0 kt HW 11.1 kt LCW
W.Rank220° ranks 1
Current wind is above 220° avg. (11.7)
Visibility9999 m
Phenomena:N/A
Clouds:Overcast 008 Hf
Expected CloudBase > 400 ft AGL from Temp-Dew spread
Ceiling800 ft
Temp06°C (ISA -4)
Dew Point05°C (93% RH)
AAT-0.5°C
QNH1000 hPa
Density Alt2,477 ft
Elevation2,411 ft
Report Wrong Elevation
Raw Report
KGEG 201453Z 22015KT 10SM OVC008 06/05 A2953 RMK AO2 SLP004 60000
T00560050 53012=

Extra information for KGEG:More info

Metar Taf Metar & Taf Last 4 Metars F.Rules Stats Wind Profile Meteogram Temp Stats Airport Information Weather charts Add Link Nearby VenuesMetar ALERT Operation Metar Decoded Social comments

AIRNAV info for KGEG